Union, Missouri
Current Conditions -  °F | °C
As of 10:55 PM on Wednesday 24 Dec 2014 (Local Time) from KFYG Reporting Station
Overcast Overcast  
Wind Chill: 37°   Ceiling: 2900
Heat Index: 37°   Visibility: 10mi
Dew Point: 32°   Wind: 3mph
Humidity: 81%   Direction: 250°WSW
Pressure: 29.87"   Gusts: NA
Location:  38.45°N, 91.01°W
Report Text: KFYG 250455Z AUTO 25003KT 10SM OVC029 03/00 A2987 RMK AO2
Loading
Personal Weather Stations






























Interactive Weather Map New forecast layout! Learn more

10-Day Weather Forecast

Advertisements
Track Severe Weather on mobile